Time;durP1;ratioP1;P1;durP2;ratioP2;P2;SDS_P1;SDS_P2;PMS_P1;PMS_P2;Temp;Humidity;BMP_temperature;BMP_pressure;BME280_temperature;BME280_humidity;BME280_pressure;Samples;Min_cycle;Max_cycle;Signal;HPM_P1;HPM_P2
2023/07/14 00:00:25;;;;;;;56.90;2.23;;;;;;;;;;4995083;28;20462;-71
2023/07/14 00:02:54;;;;;;;56.63;2.07;;;;;;;;;;4995203;28;20475;-71
2023/07/14 00:05:22;;;;;;;57.77;2.10;;;;;;;;;;4995603;28;20457;-71
2023/07/14 00:07:50;;;;;;;56.70;2.10;;;;;;;;;;4995640;28;20458;-71
2023/07/14 00:10:18;;;;;;;57.20;2.50;;;;;;;;;;4995308;28;20454;-71
2023/07/14 00:12:48;;;;;;;57.20;2.40;;;;;;;;;;4995213;28;20491;-71
2023/07/14 00:15:15;;;;;;;56.80;2.30;;;;;;;;;;4995003;28;20501;-71
2023/07/14 00:17:43;;;;;;;56.73;2.27;;;;;;;;;;4995109;28;20824;-71
2023/07/14 00:20:24;;;;;;;58.00;3.17;;;;;;;;;;4994878;28;20451;-71
2023/07/14 00:22:51;;;;;;;57.07;2.17;;;;;;;;;;4994993;28;20485;-71
2023/07/14 00:25:18;;;;;;;57.20;2.20;;;;;;;;;;4995142;28;20463;-71
2023/07/14 00:27:47;;;;;;;56.80;2.20;;;;;;;;;;4994660;28;20461;-71
2023/07/14 00:30:16;;;;;;;56.83;1.97;;;;;;;;;;4994468;28;20486;-71
2023/07/14 00:32:43;;;;;;;56.53;2.13;;;;;;;;;;4994666;28;20490;-71
2023/07/14 00:35:21;;;;;;;56.80;2.30;;;;;;;;;;4994958;28;20915;-71
2023/07/14 00:37:48;;;;;;;56.80;2.20;;;;;;;;;;4994589;28;21005;-71
2023/07/14 00:40:17;;;;;;;56.87;2.10;;;;;;;;;;4994686;28;20450;-71
2023/07/14 00:42:45;;;;;;;56.93;2.07;;;;;;;;;;4994302;28;20525;-71
2023/07/14 00:45:18;;;;;;;56.90;2.20;;;;;;;;;;4993323;28;20849;-71
2023/07/14 00:47:46;;;;;;;57.17;2.20;;;;;;;;;;4993919;28;20462;-71
2023/07/14 00:50:17;;;;;;;56.87;2.27;;;;;;;;;;4993132;28;20447;-71
2023/07/14 00:52:46;;;;;;;56.83;2.30;;;;;;;;;;4993465;28;20495;-71
2023/07/14 00:55:26;;;;;;;57.10;2.40;;;;;;;;;;4993751;28;20455;-71
2023/07/14 00:57:55;;;;;;;56.87;2.20;;;;;;;;;;4993647;28;20447;-71
2023/07/14 01:00:26;;;;;;;57.07;2.30;;;;;;;;;;4993297;28;20456;-71
2023/07/14 01:02:53;;;;;;;56.87;2.47;;;;;;;;;;4993254;28;20471;-72
2023/07/14 01:05:21;;;;;;;56.70;2.30;;;;;;;;;;4993478;28;20454;-71
2023/07/14 01:07:49;;;;;;;56.90;2.30;;;;;;;;;;4992188;28;20901;-72
2023/07/14 01:10:18;;;;;;;56.80;2.20;;;;;;;;;;4993310;28;20465;-71
2023/07/14 01:12:49;;;;;;;59.50;3.20;;;;;;;;;;4992978;28;20490;-71
2023/07/14 01:15:16;;;;;;;56.70;2.03;;;;;;;;;;4993259;28;20463;-72
2023/07/14 01:17:45;;;;;;;57.10;2.60;;;;;;;;;;4993303;28;20509;-71
2023/07/14 01:20:13;;;;;;;56.87;2.10;;;;;;;;;;4992827;28;20465;-71
2023/07/14 01:22:43;;;;;;;56.80;2.20;;;;;;;;;;4993078;28;20471;-71
2023/07/14 01:25:16;;;;;;;57.00;2.47;;;;;;;;;;4993694;28;20458;-71
2023/07/14 01:27:46;;;;;;;56.90;2.20;;;;;;;;;;4993388;28;20477;-72
2023/07/14 01:30:14;;;;;;;56.87;2.30;;;;;;;;;;4992490;28;20537;-71
2023/07/14 01:32:43;;;;;;;56.80;2.13;;;;;;;;;;4992332;28;20490;-71
2023/07/14 01:35:10;;;;;;;56.83;2.20;;;;;;;;;;4993364;28;20517;-71
2023/07/14 01:37:39;;;;;;;56.80;2.10;;;;;;;;;;4992271;28;20838;-71
2023/07/14 01:40:11;;;;;;;56.97;2.40;;;;;;;;;;4992983;28;20455;-70
2023/07/14 01:42:38;;;;;;;56.47;2.20;;;;;;;;;;4992841;28;20475;-70
2023/07/14 01:45:11;;;;;;;56.97;2.17;;;;;;;;;;4956447;28;1084495;-70
2023/07/14 01:47:38;;;;;;;56.67;2.20;;;;;;;;;;4994374;28;20447;-70
2023/07/14 01:50:06;;;;;;;57.17;2.60;;;;;;;;;;4993523;28;20796;-70
2023/07/14 01:52:34;;;;;;;56.10;2.13;;;;;;;;;;4994045;28;20526;-71
2023/07/14 01:55:04;;;;;;;56.57;2.20;;;;;;;;;;4993782;28;20943;-70
2023/07/14 01:57:32;;;;;;;56.53;2.30;;;;;;;;;;4993879;28;20455;-70
2023/07/14 02:00:03;;;;;;;56.63;2.20;;;;;;;;;;4993853;28;20459;-70
2023/07/14 02:05:37;;;;;;;56.93;2.03;;;;;;;;;;4991782;28;20431;-71
2023/07/14 02:08:07;;;;;;;57.00;2.10;;;;;;;;;;4994216;28;20455;-71
2023/07/14 02:10:34;;;;;;;56.57;2.17;;;;;;;;;;4993720;28;20455;-71
2023/07/14 02:13:05;;;;;;;56.73;2.20;;;;;;;;;;4993204;28;20855;-70
2023/07/14 02:15:33;;;;;;;56.77;2.63;;;;;;;;;;4993140;28;20463;-70
2023/07/14 02:18:01;;;;;;;56.90;2.50;;;;;;;;;;4993310;28;20804;-70
2023/07/14 02:20:29;;;;;;;56.87;2.20;;;;;;;;;;4993068;28;20466;-70
2023/07/14 02:22:59;;;;;;;56.63;2.10;;;;;;;;;;4993297;28;20490;-71
2023/07/14 02:25:27;;;;;;;57.00;2.30;;;;;;;;;;4993356;28;20446;-70
2023/07/14 02:27:54;;;;;;;56.97;2.30;;;;;;;;;;4993026;28;20451;-70
2023/07/14 02:30:23;;;;;;;57.20;2.30;;;;;;;;;;4992100;28;21001;-70
2023/07/14 02:32:52;;;;;;;56.83;2.10;;;;;;;;;;4992587;28;20487;-70
2023/07/14 02:35:21;;;;;;;56.93;2.83;;;;;;;;;;4992755;28;20451;-70
2023/07/14 02:38:03;;;;;;;56.77;2.07;;;;;;;;;;4992258;28;20835;-70
2023/07/14 02:40:33;;;;;;;58.70;3.60;;;;;;;;;;4991581;28;20457;-70
2023/07/14 02:43:03;;;;;;;56.87;2.10;;;;;;;;;;4991903;28;20446;-72
2023/07/14 02:45:31;;;;;;;56.60;2.20;;;;;;;;;;4991438;28;20454;-70
2023/07/14 02:47:58;;;;;;;57.00;2.20;;;;;;;;;;4992043;28;20457;-70
2023/07/14 02:50:25;;;;;;;56.67;2.13;;;;;;;;;;4991712;28;20822;-71
2023/07/14 02:52:53;;;;;;;56.87;2.20;;;;;;;;;;4992239;28;20514;-70
2023/07/14 02:55:20;;;;;;;56.67;2.30;;;;;;;;;;4992337;28;20483;-70
2023/07/14 02:57:48;;;;;;;56.83;2.50;;;;;;;;;;4992084;28;20456;-70
2023/07/14 03:00:16;;;;;;;56.97;2.20;;;;;;;;;;4991881;28;20458;-70
2023/07/14 03:02:43;;;;;;;56.97;2.13;;;;;;;;;;4992195;28;20559;-70
2023/07/14 03:05:12;;;;;;;57.20;2.73;;;;;;;;;;4991855;28;20451;-70
2023/07/14 03:07:39;;;;;;;57.20;2.60;;;;;;;;;;4991573;28;20447;-70
2023/07/14 03:10:08;;;;;;;56.83;2.30;;;;;;;;;;4991669;28;20947;-70
2023/07/14 03:12:35;;;;;;;57.07;2.40;;;;;;;;;;4992141;28;20471;-70
2023/07/14 03:15:04;;;;;;;57.10;2.67;;;;;;;;;;4991921;28;20455;-70
2023/07/14 03:17:31;;;;;;;56.77;2.13;;;;;;;;;;4991929;28;20459;-71
2023/07/14 03:19:58;;;;;;;56.67;2.07;;;;;;;;;;4992481;28;20461;-70
2023/07/14 03:22:30;;;;;;;57.00;2.07;;;;;;;;;;4991704;28;20475;-70
2023/07/14 03:24:57;;;;;;;56.77;2.30;;;;;;;;;;4991842;28;20830;-70
2023/07/14 03:27:24;;;;;;;57.03;2.57;;;;;;;;;;4992660;28;20459;-70
2023/07/14 03:29:51;;;;;;;56.97;2.60;;;;;;;;;;4992809;28;20827;-71
2023/07/14 03:32:20;;;;;;;57.00;2.27;;;;;;;;;;4991944;28;20483;-70
2023/07/14 03:34:47;;;;;;;56.77;2.27;;;;;;;;;;4992494;28;20855;-70
2023/07/14 03:37:14;;;;;;;56.87;2.30;;;;;;;;;;4992550;28;20453;-70
2023/07/14 03:39:42;;;;;;;56.97;2.20;;;;;;;;;;4992608;28;20822;-70
2023/07/14 03:42:09;;;;;;;56.97;2.40;;;;;;;;;;4992418;28;20471;-70
2023/07/14 03:44:36;;;;;;;56.93;2.10;;;;;;;;;;4993048;28;20455;-70
2023/07/14 03:47:04;;;;;;;56.80;2.20;;;;;;;;;;4992434;28;20457;-71
2023/07/14 03:49:32;;;;;;;56.57;2.13;;;;;;;;;;4993269;28;20447;-71
2023/07/14 03:51:59;;;;;;;56.80;2.27;;;;;;;;;;4993021;28;21021;-70
2023/07/14 03:54:26;;;;;;;56.90;2.30;;;;;;;;;;4992332;28;20491;-71
2023/07/14 03:56:53;;;;;;;56.67;2.30;;;;;;;;;;4995467;28;20477;-70
2023/07/14 03:59:21;;;;;;;56.97;2.33;;;;;;;;;;4996181;28;20822;-70
2023/07/14 04:01:48;;;;;;;58.03;2.60;;;;;;;;;;4995113;28;20482;-70
2023/07/14 04:04:15;;;;;;;56.60;2.10;;;;;;;;;;4995528;28;20458;-70
2023/07/14 04:06:44;;;;;;;57.80;2.50;;;;;;;;;;4995676;28;20447;-70
2023/07/14 04:09:11;;;;;;;58.17;2.67;;;;;;;;;;4995589;28;20951;-69
2023/07/14 04:11:38;;;;;;;56.70;2.10;;;;;;;;;;4994940;28;20679;-70
2023/07/14 04:14:05;;;;;;;56.97;2.67;;;;;;;;;;4994862;28;20565;-70
2023/07/14 04:16:33;;;;;;;56.67;2.00;;;;;;;;;;4995337;28;20465;-70
2023/07/14 04:19:00;;;;;;;56.57;1.97;;;;;;;;;;4995344;28;20450;-70
2023/07/14 04:21:27;;;;;;;56.90;2.00;;;;;;;;;;4995491;28;20478;-70
2023/07/14 04:23:56;;;;;;;56.90;2.30;;;;;;;;;;4995736;28;20463;-70
2023/07/14 04:26:24;;;;;;;57.63;2.30;;;;;;;;;;4995024;28;20453;-70
2023/07/14 04:28:51;;;;;;;56.67;2.00;;;;;;;;;;4995370;28;20447;-70
2023/07/14 04:31:19;;;;;;;56.80;2.13;;;;;;;;;;4994884;28;21054;-71
2023/07/14 04:33:46;;;;;;;56.50;2.20;;;;;;;;;;4994946;28;20482;-70
2023/07/14 04:36:14;;;;;;;56.57;2.30;;;;;;;;;;4994687;28;20455;-70
2023/07/14 04:38:42;;;;;;;56.63;2.20;;;;;;;;;;4994693;28;20470;-70
2023/07/14 04:41:13;;;;;;;57.20;2.10;;;;;;;;;;4994729;28;20478;-69
2023/07/14 04:43:40;;;;;;;56.67;2.00;;;;;;;;;;4994996;28;20494;-70
2023/07/14 04:46:07;;;;;;;56.77;2.10;;;;;;;;;;4994522;28;20447;-70
2023/07/14 04:48:34;;;;;;;57.07;2.37;;;;;;;;;;4994747;28;20455;-70
2023/07/14 04:51:01;;;;;;;56.77;2.40;;;;;;;;;;4994309;28;20494;-69
2023/07/14 04:53:28;;;;;;;56.90;2.40;;;;;;;;;;4994529;28;20490;-70
2023/07/14 04:55:55;;;;;;;56.80;2.10;;;;;;;;;;4994871;28;20450;-69
2023/07/14 04:58:24;;;;;;;56.90;2.30;;;;;;;;;;4994744;28;20451;-70
2023/07/14 05:03:55;;;;;;;56.80;2.53;;;;;;;;;;4992702;28;20457;-70
2023/07/14 05:06:22;;;;;;;56.80;2.20;;;;;;;;;;4993624;28;20954;-70
2023/07/14 05:08:49;;;;;;;56.90;2.40;;;;;;;;;;4993297;28;20455;-70
2023/07/14 05:11:16;;;;;;;56.87;2.50;;;;;;;;;;4992914;28;20482;-69
2023/07/14 05:13:45;;;;;;;56.90;2.27;;;;;;;;;;4993611;28;20490;-70
2023/07/14 05:16:12;;;;;;;56.80;2.37;;;;;;;;;;4993696;28;20474;-70
2023/07/14 05:18:39;;;;;;;57.07;2.10;;;;;;;;;;4993714;28;20451;-70
2023/07/14 05:21:06;;;;;;;56.70;1.90;;;;;;;;;;4993443;28;20482;-70
2023/07/14 05:23:33;;;;;;;56.57;2.20;;;;;;;;;;4993579;28;20457;-70
2023/07/14 05:26:01;;;;;;;56.93;2.30;;;;;;;;;;4993728;28;20451;-70
2023/07/14 05:28:28;;;;;;;57.00;2.80;;;;;;;;;;4993695;28;20453;-69
2023/07/14 05:30:57;;;;;;;56.60;2.00;;;;;;;;;;4993140;28;20479;-70
2023/07/14 05:33:24;;;;;;;56.63;1.90;;;;;;;;;;4993170;28;20573;-69
2023/07/14 05:35:51;;;;;;;56.40;2.00;;;;;;;;;;4992707;28;20463;-70
2023/07/14 05:38:18;;;;;;;56.63;2.13;;;;;;;;;;4992846;28;20875;-69
2023/07/14 05:40:51;;;;;;;56.77;2.00;;;;;;;;;;4993176;28;20453;-68
2023/07/14 05:43:18;;;;;;;56.90;2.20;;;;;;;;;;4992712;28;20470;-69
2023/07/14 05:45:47;;;;;;;56.80;2.27;;;;;;;;;;4992702;28;20478;-69
2023/07/14 05:48:16;;;;;;;56.57;2.00;;;;;;;;;;4992825;28;20641;-69
2023/07/14 05:50:44;;;;;;;56.47;2.00;;;;;;;;;;4992479;28;20505;-69
2023/07/14 05:53:11;;;;;;;56.50;2.17;;;;;;;;;;4992687;28;20525;-69
2023/07/14 05:55:38;;;;;;;56.63;2.20;;;;;;;;;;4993013;28;20455;-69
2023/07/14 05:58:06;;;;;;;56.90;2.23;;;;;;;;;;4993486;28;20447;-70
2023/07/14 06:00:38;;;;;;;56.80;2.20;;;;;;;;;;4992548;28;20466;-69
2023/07/14 06:03:06;;;;;;;56.80;2.20;;;;;;;;;;4992798;28;20463;-69
2023/07/14 06:05:34;;;;;;;56.50;2.30;;;;;;;;;;4992930;28;20494;-69
2023/07/14 06:08:01;;;;;;;56.43;2.10;;;;;;;;;;4992610;28;20943;-70
2023/07/14 06:10:29;;;;;;;56.67;2.00;;;;;;;;;;4992279;28;20480;-69
2023/07/14 06:12:56;;;;;;;56.37;1.90;;;;;;;;;;4992764;28;20479;-69
2023/07/14 06:15:23;;;;;;;56.37;2.00;;;;;;;;;;4993014;28;20487;-69
2023/07/14 06:17:50;;;;;;;56.57;2.27;;;;;;;;;;4992726;28;20458;-68
2023/07/14 06:20:17;;;;;;;56.47;2.30;;;;;;;;;;4992468;28;20465;-70
2023/07/14 06:22:45;;;;;;;56.53;2.40;;;;;;;;;;4993110;28;20467;-69
2023/07/14 06:25:13;;;;;;;56.80;2.37;;;;;;;;;;4992590;28;20454;-70
2023/07/14 06:27:40;;;;;;;56.37;2.00;;;;;;;;;;4992765;28;20449;-69
2023/07/14 06:30:08;;;;;;;56.70;2.10;;;;;;;;;;4992812;28;20454;-69
2023/07/14 06:32:35;;;;;;;56.50;2.20;;;;;;;;;;4992906;28;20561;-70
2023/07/14 06:35:03;;;;;;;56.80;2.10;;;;;;;;;;4992593;28;21049;-69
2023/07/14 06:37:30;;;;;;;56.40;1.83;;;;;;;;;;4992880;28;20454;-69
2023/07/14 06:39:59;;;;;;;56.30;2.00;;;;;;;;;;4992318;28;20455;-70
2023/07/14 06:42:26;;;;;;;56.60;1.97;;;;;;;;;;4992517;28;20469;-69
2023/07/14 06:44:53;;;;;;;56.53;1.90;;;;;;;;;;4992927;28;20459;-69
2023/07/14 06:47:20;;;;;;;56.40;1.90;;;;;;;;;;4993099;28;20451;-69
2023/07/14 06:49:47;;;;;;;56.77;2.00;;;;;;;;;;4993169;28;20974;-69
2023/07/14 06:52:14;;;;;;;56.67;1.90;;;;;;;;;;4992731;28;20502;-70
2023/07/14 06:54:41;;;;;;;56.43;2.30;;;;;;;;;;4993050;28;20625;-70
2023/07/14 06:57:10;;;;;;;56.87;2.30;;;;;;;;;;4992924;28;20834;-70
2023/07/14 06:59:37;;;;;;;56.47;2.40;;;;;;;;;;4992733;28;20550;-69
2023/07/14 07:02:04;;;;;;;56.80;2.60;;;;;;;;;;4992451;28;20475;-70
2023/07/14 07:04:33;;;;;;;56.63;2.20;;;;;;;;;;4993185;28;20449;-69
2023/07/14 07:07:00;;;;;;;56.57;2.07;;;;;;;;;;4992433;28;20941;-70
2023/07/14 07:09:28;;;;;;;56.50;2.00;;;;;;;;;;4992804;28;20459;-69
2023/07/14 07:11:55;;;;;;;56.90;2.10;;;;;;;;;;4991403;28;20475;-70
2023/07/14 07:14:24;;;;;;;56.57;1.90;;;;;;;;;;4992179;28;20490;-70
2023/07/14 07:16:52;;;;;;;56.60;2.07;;;;;;;;;;4991999;28;20451;-70
2023/07/14 07:19:19;;;;;;;56.27;1.90;;;;;;;;;;4991570;28;20971;-70
2023/07/14 07:21:46;;;;;;;56.83;2.27;;;;;;;;;;4991660;28;20486;-70
2023/07/14 07:24:13;;;;;;;56.37;2.00;;;;;;;;;;4991887;28;20447;-70
2023/07/14 07:26:40;;;;;;;57.27;2.97;;;;;;;;;;4991614;28;20469;-70
2023/07/14 07:29:07;;;;;;;56.67;1.90;;;;;;;;;;4991728;28;20466;-70
2023/07/14 07:31:36;;;;;;;56.23;1.70;;;;;;;;;;4994008;28;20478;-70
2023/07/14 07:34:05;;;;;;;56.70;1.80;;;;;;;;;;4995262;28;20495;-70
2023/07/14 07:36:32;;;;;;;56.33;2.00;;;;;;;;;;4995101;28;20455;-70
2023/07/14 07:39:00;;;;;;;57.00;2.20;;;;;;;;;;4995136;28;20451;-70
2023/07/14 07:41:27;;;;;;;56.63;2.00;;;;;;;;;;4995058;28;20525;-70
2023/07/14 07:43:54;;;;;;;57.00;2.00;;;;;;;;;;4994950;28;20462;-69
2023/07/14 07:46:22;;;;;;;56.60;2.20;;;;;;;;;;4995074;28;20463;-70
2023/07/14 07:48:50;;;;;;;56.27;1.90;;;;;;;;;;4995001;28;20455;-70
2023/07/14 07:51:17;;;;;;;56.03;1.90;;;;;;;;;;4994662;28;20485;-70
2023/07/14 07:53:45;;;;;;;57.00;2.60;;;;;;;;;;4994715;28;20455;-70
2023/07/14 07:56:12;;;;;;;56.70;2.23;;;;;;;;;;4994944;28;20450;-70
2023/07/14 07:58:39;;;;;;;56.77;2.30;;;;;;;;;;4995335;28;20447;-70
2023/07/14 08:01:09;;;;;;;57.13;2.27;;;;;;;;;;4994433;28;20497;-70
2023/07/14 08:03:37;;;;;;;56.27;2.00;;;;;;;;;;4994718;28;20829;-70
2023/07/14 08:06:06;;;;;;;56.50;2.00;;;;;;;;;;4994743;28;20453;-70
2023/07/14 08:08:34;;;;;;;56.37;1.83;;;;;;;;;;4994457;28;20549;-70
2023/07/14 08:11:01;;;;;;;56.07;1.80;;;;;;;;;;4993672;28;20471;-71
2023/07/14 08:13:29;;;;;;;56.70;2.03;;;;;;;;;;4994455;28;20447;-70
2023/07/14 08:15:56;;;;;;;56.47;1.77;;;;;;;;;;4994296;28;20486;-70
2023/07/14 08:18:24;;;;;;;56.57;1.83;;;;;;;;;;4994134;28;20462;-70
2023/07/14 08:20:51;;;;;;;55.80;1.70;;;;;;;;;;4993870;28;20827;-70
2023/07/14 08:23:21;;;;;;;56.33;2.10;;;;;;;;;;4994499;28;20875;-70
2023/07/14 08:25:54;;;;;;;56.60;2.00;;;;;;;;;;4994109;28;20454;-70
2023/07/14 08:28:22;;;;;;;56.47;2.50;;;;;;;;;;4994880;28;20488;-70
2023/07/14 08:30:50;;;;;;;56.77;2.00;;;;;;;;;;4993792;28;20958;-70
2023/07/14 08:33:17;;;;;;;56.07;2.00;;;;;;;;;;4994259;28;20459;-70
2023/07/14 08:35:44;;;;;;;57.20;2.30;;;;;;;;;;4994066;28;20929;-70
2023/07/14 08:38:11;;;;;;;56.47;2.20;;;;;;;;;;4994115;28;20448;-70
2023/07/14 08:40:45;;;;;;;56.17;1.90;;;;;;;;;;4993584;28;20451;-70
2023/07/14 08:43:19;;;;;;;56.70;2.17;;;;;;;;;;4993899;28;20475;-70
2023/07/14 08:45:51;;;;;;;58.70;2.63;;;;;;;;;;4993639;28;20446;-70
2023/07/14 08:48:26;;;;;;;56.47;1.90;;;;;;;;;;4994186;28;20461;-70
2023/07/14 08:50:56;;;;;;;56.60;2.20;;;;;;;;;;4993879;28;20462;-70
2023/07/14 08:53:26;;;;;;;56.37;2.00;;;;;;;;;;4994135;28;20459;-71
2023/07/14 08:55:58;;;;;;;56.33;1.70;;;;;;;;;;4994020;28;20493;-71
2023/07/14 08:58:27;;;;;;;56.37;1.80;;;;;;;;;;4994346;28;20461;-70
2023/07/14 09:01:02;;;;;;;56.27;1.80;;;;;;;;;;4993634;28;20454;-71
2023/07/14 09:03:37;;;;;;;56.57;2.10;;;;;;;;;;4994037;28;20457;-71
2023/07/14 09:06:06;;;;;;;58.77;1.90;;;;;;;;;;4994102;28;20952;-71
2023/07/14 09:08:34;;;;;;;56.50;2.00;;;;;;;;;;4993705;28;20959;-70
2023/07/14 09:11:03;;;;;;;56.13;1.83;;;;;;;;;;4993450;28;20463;-70
2023/07/14 09:13:41;;;;;;;55.97;1.60;;;;;;;;;;4993733;28;20826;-71
2023/07/14 09:16:10;;;;;;;56.50;2.40;;;;;;;;;;4993518;28;20493;-70
2023/07/14 09:18:42;;;;;;;56.07;1.77;;;;;;;;;;4993377;28;20451;-71
2023/07/14 09:21:14;;;;;;;56.20;1.90;;;;;;;;;;4992957;28;20467;-70
2023/07/14 09:23:56;;;;;;;55.87;1.63;;;;;;;;;;4993375;28;20451;-70
2023/07/14 09:26:30;;;;;;;56.37;1.70;;;;;;;;;;4993215;28;20451;-70
2023/07/14 09:28:58;;;;;;;56.37;1.80;;;;;;;;;;4993183;28;20454;-70
2023/07/14 09:31:31;;;;;;;56.40;2.10;;;;;;;;;;4992745;28;20478;-70
2023/07/14 09:34:00;;;;;;;55.83;1.63;;;;;;;;;;4993223;28;20462;-70
2023/07/14 09:36:28;;;;;;;56.20;1.90;;;;;;;;;;4992952;28;20831;-70
2023/07/14 09:38:56;;;;;;;56.10;1.87;;;;;;;;;;4993057;28;20451;-71
2023/07/14 09:41:24;;;;;;;56.30;1.63;;;;;;;;;;4992736;28;20477;-70
2023/07/14 09:43:57;;;;;;;56.13;1.73;;;;;;;;;;4993199;28;20467;-70
2023/07/14 09:46:25;;;;;;;56.00;1.70;;;;;;;;;;4993185;28;20882;-70
2023/07/14 09:48:53;;;;;;;55.97;1.70;;;;;;;;;;4992910;28;20940;-70
2023/07/14 09:51:23;;;;;;;56.50;2.40;;;;;;;;;;4992795;28;20471;-71
2023/07/14 09:54:08;;;;;;;57.30;1.97;;;;;;;;;;4992391;28;20493;-71
2023/07/14 09:56:37;;;;;;;55.87;1.93;;;;;;;;;;4992464;28;20858;-70
2023/07/14 09:59:07;;;;;;;55.90;1.63;;;;;;;;;;4992855;28;20462;-70
2023/07/14 10:01:35;;;;;;;56.30;2.20;;;;;;;;;;4992503;28;20644;-69
2023/07/14 10:04:13;;;;;;;55.97;1.60;;;;;;;;;;4992915;28;20454;-70
2023/07/14 10:06:41;;;;;;;56.00;1.90;;;;;;;;;;4992720;28;20446;-70
2023/07/14 10:09:11;;;;;;;56.10;1.80;;;;;;;;;;4993091;28;20547;-70
2023/07/14 10:11:41;;;;;;;55.97;1.80;;;;;;;;;;4991813;28;20549;-70
2023/07/14 10:14:21;;;;;;;56.10;1.73;;;;;;;;;;4988811;28;20800;-70
2023/07/14 10:16:48;;;;;;;55.97;1.77;;;;;;;;;;4992745;28;20857;-69
2023/07/14 10:19:16;;;;;;;56.07;1.70;;;;;;;;;;4993126;28;20447;-68
2023/07/14 10:21:50;;;;;;;55.90;1.60;;;;;;;;;;4993084;28;20467;-69
2023/07/14 10:24:18;;;;;;;55.97;1.67;;;;;;;;;;4993859;28;20451;-69
2023/07/14 10:26:50;;;;;;;56.07;1.80;;;;;;;;;;4993749;28;20455;-69
2023/07/14 10:29:20;;;;;;;55.90;1.80;;;;;;;;;;4993147;28;20451;-69
2023/07/14 10:31:49;;;;;;;55.90;1.70;;;;;;;;;;4992187;28;20475;-69
2023/07/14 10:34:22;;;;;;;56.13;1.93;;;;;;;;;;4993389;28;20475;-68
2023/07/14 10:36:49;;;;;;;56.07;1.70;;;;;;;;;;4992789;28;20486;-69
2023/07/14 10:39:28;;;;;;;57.90;1.97;;;;;;;;;;4992361;28;20455;-69
2023/07/14 10:41:55;;;;;;;55.87;1.60;;;;;;;;;;4992190;28;20843;-69
2023/07/14 10:44:27;;;;;;;55.83;1.80;;;;;;;;;;4992406;28;20467;-70
2023/07/14 10:46:57;;;;;;;56.00;1.57;;;;;;;;;;4993293;28;20454;-70
2023/07/14 10:49:27;;;;;;;55.90;1.60;;;;;;;;;;4992772;28;20458;-70
2023/07/14 10:51:56;;;;;;;55.80;1.50;;;;;;;;;;4992430;28;20525;-69
2023/07/14 10:54:25;;;;;;;58.30;2.20;;;;;;;;;;4992401;28;20447;-69
2023/07/14 10:56:57;;;;;;;56.30;2.03;;;;;;;;;;4992501;28;20494;-69
2023/07/14 10:59:28;;;;;;;55.87;1.70;;;;;;;;;;4992718;28;20489;-70
2023/07/14 11:01:59;;;;;;;55.90;1.60;;;;;;;;;;4992479;28;20473;-70
2023/07/14 11:04:29;;;;;;;56.60;1.83;;;;;;;;;;4992617;28;20942;-70
2023/07/14 11:06:57;;;;;;;55.83;1.60;;;;;;;;;;4996043;28;20450;-70
2023/07/14 11:09:25;;;;;;;55.67;1.60;;;;;;;;;;4996938;28;20489;-70
2023/07/14 11:12:03;;;;;;;55.90;1.80;;;;;;;;;;4997062;28;20486;-70
2023/07/14 11:14:37;;;;;;;55.67;1.70;;;;;;;;;;4997204;28;20819;-70
2023/07/14 11:17:08;;;;;;;55.80;1.90;;;;;;;;;;4996807;28;20479;-70
2023/07/14 11:19:44;;;;;;;56.07;1.60;;;;;;;;;;4996473;28;21026;-70
2023/07/14 11:22:16;;;;;;;55.80;1.70;;;;;;;;;;4996990;28;20467;-71
2023/07/14 11:24:45;;;;;;;55.77;1.67;;;;;;;;;;4997208;28;20450;-70
2023/07/14 11:27:25;;;;;;;55.80;1.60;;;;;;;;;;4997289;28;20943;-71
2023/07/14 11:29:55;;;;;;;55.87;1.50;;;;;;;;;;4996946;28;20462;-71
2023/07/14 11:32:23;;;;;;;55.63;1.60;;;;;;;;;;4996009;28;20478;-71
2023/07/14 11:34:56;;;;;;;55.67;1.60;;;;;;;;;;4996840;28;20455;-71
2023/07/14 11:37:32;;;;;;;56.20;1.90;;;;;;;;;;4996864;28;20451;-71
2023/07/14 11:40:00;;;;;;;55.87;1.83;;;;;;;;;;4995353;28;20461;-70
2023/07/14 11:42:28;;;;;;;55.70;1.60;;;;;;;;;;4995695;28;20479;-71
2023/07/14 11:44:58;;;;;;;57.40;2.40;;;;;;;;;;4995394;28;20497;-71
2023/07/14 11:47:27;;;;;;;55.67;1.53;;;;;;;;;;4995913;28;20458;-70
2023/07/14 11:49:55;;;;;;;57.07;2.07;;;;;;;;;;4995256;28;20958;-71
2023/07/14 11:52:23;;;;;;;55.77;1.70;;;;;;;;;;4995119;28;20986;-71
2023/07/14 11:54:57;;;;;;;55.80;1.60;;;;;;;;;;4995042;28;20446;-70
2023/07/14 11:57:25;;;;;;;55.63;1.50;;;;;;;;;;4994908;28;20485;-70
2023/07/14 11:59:57;;;;;;;55.50;1.50;;;;;;;;;;4995735;28;20455;-70
2023/07/14 12:02:39;;;;;;;55.53;1.87;;;;;;;;;;4994977;28;20470;-71
2023/07/14 12:05:22;;;;;;;55.57;1.50;;;;;;;;;;4994791;28;20827;-71
2023/07/14 12:08:04;;;;;;;55.60;1.50;;;;;;;;;;4983487;28;20501;-71
2023/07/14 12:10:46;;;;;;;56.10;1.80;;;;;;;;;;4993933;28;20455;-71
2023/07/14 12:13:21;;;;;;;55.47;1.57;;;;;;;;;;4987931;28;20465;-71
2023/07/14 12:15:50;;;;;;;55.40;1.50;;;;;;;;;;4994779;28;20537;-71
2023/07/14 12:18:30;;;;;;;55.37;1.70;;;;;;;;;;4995029;28;20458;-70
2023/07/14 12:21:16;;;;;;;55.57;1.80;;;;;;;;;;4994960;28;20466;-70
2023/07/14 12:23:44;;;;;;;55.60;1.70;;;;;;;;;;4995674;28;20455;-70
2023/07/14 12:26:13;;;;;;;55.80;1.60;;;;;;;;;;4995021;28;20447;-71
2023/07/14 12:28:40;;;;;;;55.50;1.60;;;;;;;;;;4995103;28;20451;-71
2023/07/14 12:31:13;;;;;;;55.50;1.80;;;;;;;;;;4995178;28;20467;-70
2023/07/14 12:33:40;;;;;;;55.67;1.70;;;;;;;;;;4995112;28;20458;-71
2023/07/14 12:36:11;;;;;;;55.50;2.00;;;;;;;;;;4994917;28;20482;-71
2023/07/14 12:38:38;;;;;;;55.47;1.87;;;;;;;;;;4995378;28;20451;-70
2023/07/14 12:41:06;;;;;;;55.60;2.03;;;;;;;;;;4995418;28;20494;-71
2023/07/14 12:43:34;;;;;;;55.30;1.50;;;;;;;;;;4995367;28;20463;-71
2023/07/14 12:46:02;;;;;;;55.27;1.70;;;;;;;;;;4995640;28;20456;-71
2023/07/14 12:48:32;;;;;;;55.20;1.73;;;;;;;;;;4995505;28;20544;-70
2023/07/14 12:51:00;;;;;;;54.77;1.70;;;;;;;;;;4995435;28;21077;-71
2023/07/14 12:53:31;;;;;;;54.93;1.60;;;;;;;;;;4995143;28;20446;-71
2023/07/14 12:56:04;;;;;;;54.90;1.63;;;;;;;;;;4995834;28;20482;-71
2023/07/14 12:58:32;;;;;;;54.87;1.70;;;;;;;;;;4995659;28;20454;-71
2023/07/14 13:00:59;;;;;;;55.60;1.90;;;;;;;;;;4995300;28;20501;-71
2023/07/14 13:03:26;;;;;;;55.30;1.90;;;;;;;;;;4995377;28;20451;-70
2023/07/14 13:05:54;;;;;;;54.60;1.77;;;;;;;;;;4994942;28;20947;-71
2023/07/14 13:08:22;;;;;;;54.70;2.20;;;;;;;;;;4995075;28;20447;-71
2023/07/14 13:10:50;;;;;;;54.37;1.80;;;;;;;;;;4995181;28;20490;-70
2023/07/14 13:13:21;;;;;;;54.47;1.73;;;;;;;;;;4995797;28;20455;-72
2023/07/14 13:15:49;;;;;;;55.00;1.87;;;;;;;;;;4995571;28;20482;-71
2023/07/14 13:18:25;;;;;;;55.00;1.60;;;;;;;;;;4994503;28;20450;-71
2023/07/14 13:20:52;;;;;;;54.90;2.23;;;;;;;;;;4994363;28;20547;-71
2023/07/14 13:23:24;;;;;;;54.70;1.70;;;;;;;;;;4995824;28;20456;-71
2023/07/14 13:25:53;;;;;;;55.20;2.43;;;;;;;;;;4995310;28;20451;-71
2023/07/14 13:28:27;;;;;;;54.90;1.90;;;;;;;;;;4993851;28;20860;-71
2023/07/14 13:30:54;;;;;;;54.97;1.87;;;;;;;;;;4993889;28;20824;-70
2023/07/14 13:33:25;;;;;;;54.77;1.77;;;;;;;;;;4994820;28;20467;-71
2023/07/14 13:35:55;;;;;;;55.03;1.80;;;;;;;;;;4994632;28;20495;-71
2023/07/14 13:38:23;;;;;;;54.63;1.50;;;;;;;;;;4994210;28;21011;-72
2023/07/14 13:40:54;;;;;;;55.20;2.20;;;;;;;;;;4993947;28;20466;-71
2023/07/14 13:43:22;;;;;;;54.67;1.80;;;;;;;;;;4995271;28;20550;-72
2023/07/14 13:45:59;;;;;;;55.57;2.77;;;;;;;;;;4993736;28;20654;-72
2023/07/14 13:48:31;;;;;;;54.87;1.70;;;;;;;;;;4993465;28;21062;-72
2023/07/14 13:50:59;;;;;;;55.00;1.83;;;;;;;;;;4993765;28;20955;-72
2023/07/14 13:53:28;;;;;;;54.97;1.60;;;;;;;;;;4993389;28;20962;-71
2023/07/14 13:55:56;;;;;;;55.50;2.10;;;;;;;;;;4993411;28;20454;-71
2023/07/14 13:58:23;;;;;;;54.70;1.80;;;;;;;;;;4993601;28;21049;-71
2023/07/14 14:00:50;;;;;;;55.67;2.27;;;;;;;;;;4992895;28;20455;-72
2023/07/14 14:03:17;;;;;;;54.77;1.60;;;;;;;;;;4992980;28;20463;-72
2023/07/14 14:05:45;;;;;;;54.63;1.60;;;;;;;;;;4993139;28;20455;-71
2023/07/14 14:08:15;;;;;;;55.00;1.80;;;;;;;;;;4992934;28;20458;-71
2023/07/14 14:10:43;;;;;;;55.20;1.80;;;;;;;;;;4992027;28;20498;-70
2023/07/14 14:13:11;;;;;;;54.77;1.70;;;;;;;;;;4985375;28;20494;-72
2023/07/14 14:15:41;;;;;;;54.77;2.10;;;;;;;;;;4992875;28;20443;-72
2023/07/14 14:18:09;;;;;;;54.97;1.50;;;;;;;;;;4992696;28;20482;-71
2023/07/14 14:20:36;;;;;;;55.10;1.63;;;;;;;;;;4992809;28;20458;-71
2023/07/14 14:23:05;;;;;;;55.03;1.90;;;;;;;;;;4992305;28;20451;-72
2023/07/14 14:25:33;;;;;;;55.03;1.70;;;;;;;;;;4992389;28;20501;-71
2023/07/14 14:28:03;;;;;;;55.80;2.77;;;;;;;;;;4992752;28;20442;-71
2023/07/14 14:30:32;;;;;;;55.50;1.80;;;;;;;;;;4992416;28;20513;-70
2023/07/14 14:32:59;;;;;;;55.17;1.60;;;;;;;;;;4992305;28;20562;-72
2023/07/14 14:35:28;;;;;;;55.80;1.80;;;;;;;;;;4992510;28;20459;-71
2023/07/14 14:37:56;;;;;;;55.33;2.13;;;;;;;;;;4991939;28;21024;-72
2023/07/14 14:40:23;;;;;;;55.27;1.70;;;;;;;;;;4991865;28;20970;-71
2023/07/14 14:42:50;;;;;;;55.30;2.17;;;;;;;;;;4992151;28;20471;-71
2023/07/14 14:45:23;;;;;;;55.37;1.73;;;;;;;;;;4992503;28;20462;-71
2023/07/14 14:47:50;;;;;;;55.30;1.67;;;;;;;;;;4992486;28;20442;-71